aviador You're here:

KMCX Decoded Metar

in
Report Time2017-05-22 19:15:00
UTC Time2017-05-22 19:22:52
Flight Rules vfr VFR
Wind230° at 06 Gusting to 19 kt
W.Decomp.*RWY 18: 3.9 kt HW 4.6 kt RCW
W.Rank230° ranks 7
Current wind is below 230° avg. (8.2)
Visibility9999 m
Phenomena:N/A
Clouds:N/A
Expected CloudBase > 5,200 ft AGL from Temp-Dew spread
CeilingNone
Temp21°C
Dew Point08°C (43% RH)
AAT18.4°C
QNH1017 hPa
Raw Report
METAR KMCX 221915Z AUTO 23006G19KT 10SM CLR 21/08 A3002 RMK AO2 T02060082=

Extra information for KMCX:More info

Social comments